Juergen K — PBKV — position and weather

sailwx.info

Track history (hours):
 
Tides and Currents Weather Stations Pressure Air Temp Water Temp Dewpoint Dewpoint Depression Visibility Wind Speed Wind Dir Waves Ship Positions

Juergen K

Last reported at 2014-Nov-01 00:13 UTC. Time now 2014-Nov-01 10:31 UTC.
Position N 42°33' E 005°39'.

Length 89 m; draft 5.5 m.

Type: Cargo ship. MMSI: 244329000.

Date/timePositionNaut miles runAvg speedWind from/ knotsBaromVisibWave heightAir tempDewpointWater temp
2014-Nov-01 00:13N 42°33' E 005°39'7 9.7
2014-Oct-31 23:30N 42°38' E 005°33'47 9.6
2014-Oct-31 18:33N 43°18' E 004°59'8 7.9
2014-Oct-31 17:34N 43°24' E 004°51'0 0.1
2014-Oct-31 16:28N 43°24' E 004°51'0 0.0
2014-Oct-31 15:28N 43°24' E 004°51'0 0.0
2014-Oct-31 14:31N 43°24' E 004°51'0 0.0
2014-Oct-31 13:31N 43°24' E 004°51'0 0.0
2014-Oct-31 12:31N 43°24' E 004°51'0 0.0
2014-Oct-31 11:31N 43°24' E 004°51'0 0.0
2014-Oct-31 10:28N 43°24' E 004°51'0 0.0
2014-Oct-31 09:31N 43°24' E 004°51'0 0.0
2014-Oct-31 08:31N 43°24' E 004°51'0 0.0
2014-Oct-31 07:31N 43°24' E 004°51'0 0.0
2014-Oct-31 06:31N 43°24' E 004°51'0 0.0
2014-Oct-31 05:31N 43°24' E 004°51'0 0.0
2014-Oct-31 04:28N 43°24' E 004°51'0 0.0
2014-Oct-31 03:28N 43°24' E 004°51'0 0.0
2014-Oct-31 02:28N 43°24' E 004°51'0 0.0
2014-Oct-31 01:28N 43°24' E 004°51'0 0.0
2014-Oct-31 00:28N 43°24' E 004°51'0 0.0
2014-Oct-30 23:31N 43°24' E 004°51'0 0.0
2014-Oct-30 22:25N 43°24' E 004°51'0 0.0
2014-Oct-30 21:34N 43°24' E 004°51'6 6.4
2014-Oct-30 20:33N 43°21' E 004°59'1010.4
2014-Oct-30 19:33N 43°10' E 005°00'1310.8
2014-Oct-30 18:19N 43°00' E 004°48'911.3
2014-Oct-30 17:31N 42°54' E 004°39'1212.8
2014-Oct-30 16:33N 42°45' E 004°28'9 8.5
2014-Oct-30 15:32N 42°38' E 004°20'1110.4
2014-Oct-30 14:31N 42°30' E 004°10'1210.5
2014-Oct-30 13:23N 42°22' E 003°60'1211.5
2014-Oct-30 12:21N 42°13' E 003°49'1010.6
2014-Oct-30 11:22N 42°05' E 003°39'910.4
2014-Oct-30 10:32N 41°59' E 003°31'1010.2
2014-Oct-30 09:32N 41°52' E 003°21'1211.2
2014-Oct-30 08:25N 41°43' E 003°09'6410.8
2014-Oct-30 02:28N 41°01' E 002°05'1010.7
2014-Oct-30 01:32N 40°55' E 001°55'1110.9
2014-Oct-30 00:31N 40°47' E 001°44'1010.8
2014-Oct-29 23:33N 40°40' E 001°33'1110.6
2014-Oct-29 22:33N 40°33' E 001°23'1110.8
2014-Oct-29 21:33N 40°27' E 001°12'1110.7
2014-Oct-29 20:33N 40°21' E 000°60'171 4.6
2014-Oct-28 07:20N 37°43' W 000°23'24 8.8
2014-Oct-28 04:32N 37°25' W 000°43'239 9.2
2014-Oct-27 02:34N 35°54' W 005°19'0 0.3
2014-Oct-27 01:32N 35°54' W 005°18'0 0.0
2014-Oct-27 00:32N 35°54' W 005°18'2 2.3
2014-Oct-26 23:33N 35°56' W 005°20'268 8.5
2014-Oct-25 16:05N 38°24' W 010°01'6 9.5
2014-Oct-25 15:29N 38°29' W 010°02'9 9.6
2014-Oct-25 14:33N 38°38' W 010°05'9 9.4
2014-Oct-25 13:33N 38°47' W 010°06'  
2014-Oct-23 00:33N 47°48' W 006°42'8 8.3
2014-Oct-22 23:33N 47°55' W 006°37'75 9.4
2014-Oct-22 15:33N 48°59' W 005°37'105 8.7
2014-Oct-22 03:28N 50°11' W 003°39'8 8.3
2014-Oct-22 02:33N 50°13' W 003°27'10 9.5
2014-Oct-22 01:33N 50°16' W 003°13'1010.2
2014-Oct-22 00:33N 50°19' W 002°58'  
Track history (hours):
 
Tides and Currents Weather Stations Pressure Air Temp Water Temp Dewpoint Dewpoint Depression Visibility Wind Speed Wind Dir Waves Ship Positions

Juergen K

Last reported at 2014-Nov-01 00:13 UTC. Time now 2014-Nov-01 10:31 UTC.
Position N 42°33' E 005°39'.

Length 89 m; draft 5.5 m.

Type: Cargo ship. MMSI: 244329000.

Date/timePositionNaut miles runAvg speedWind from/ knotsBaromVisibWave heightAir tempDewpointWater temp
2014-Nov-01 00:13N 42°33' E 005°39'7 9.7
2014-Oct-31 23:30N 42°38' E 005°33'47 9.6
2014-Oct-31 18:33N 43°18' E 004°59'8 7.9
2014-Oct-31 17:34N 43°24' E 004°51'0 0.1
2014-Oct-31 16:28N 43°24' E 004°51'0 0.0
2014-Oct-31 15:28N 43°24' E 004°51'0 0.0
2014-Oct-31 14:31N 43°24' E 004°51'0 0.0
2014-Oct-31 13:31N 43°24' E 004°51'0 0.0
2014-Oct-31 12:31N 43°24' E 004°51'0 0.0
2014-Oct-31 11:31N 43°24' E 004°51'0 0.0
2014-Oct-31 10:28N 43°24' E 004°51'0 0.0
2014-Oct-31 09:31N 43°24' E 004°51'0 0.0
2014-Oct-31 08:31N 43°24' E 004°51'0 0.0
2014-Oct-31 07:31N 43°24' E 004°51'0 0.0
2014-Oct-31 06:31N 43°24' E 004°51'0 0.0
2014-Oct-31 05:31N 43°24' E 004°51'0 0.0
2014-Oct-31 04:28N 43°24' E 004°51'0 0.0
2014-Oct-31 03:28N 43°24' E 004°51'0 0.0
2014-Oct-31 02:28N 43°24' E 004°51'0 0.0
2014-Oct-31 01:28N 43°24' E 004°51'0 0.0
2014-Oct-31 00:28N 43°24' E 004°51'0 0.0
2014-Oct-30 23:31N 43°24' E 004°51'0 0.0
2014-Oct-30 22:25N 43°24' E 004°51'0 0.0
2014-Oct-30 21:34N 43°24' E 004°51'6 6.4
2014-Oct-30 20:33N 43°21' E 004°59'1010.4
2014-Oct-30 19:33N 43°10' E 005°00'1310.8
2014-Oct-30 18:19N 43°00' E 004°48'911.3
2014-Oct-30 17:31N 42°54' E 004°39'1212.8
2014-Oct-30 16:33N 42°45' E 004°28'9 8.5
2014-Oct-30 15:32N 42°38' E 004°20'1110.4
2014-Oct-30 14:31N 42°30' E 004°10'1210.5
2014-Oct-30 13:23N 42°22' E 003°60'1211.5
2014-Oct-30 12:21N 42°13' E 003°49'1010.6
2014-Oct-30 11:22N 42°05' E 003°39'910.4
2014-Oct-30 10:32N 41°59' E 003°31'1010.2
2014-Oct-30 09:32N 41°52' E 003°21'1211.2
2014-Oct-30 08:25N 41°43' E 003°09'6410.8
2014-Oct-30 02:28N 41°01' E 002°05'1010.7
2014-Oct-30 01:32N 40°55' E 001°55'1110.9
2014-Oct-30 00:31N 40°47' E 001°44'1010.8
2014-Oct-29 23:33N 40°40' E 001°33'1110.6
2014-Oct-29 22:33N 40°33' E 001°23'1110.8
2014-Oct-29 21:33N 40°27' E 001°12'1110.7
2014-Oct-29 20:33N 40°21' E 000°60'171 4.6
2014-Oct-28 07:20N 37°43' W 000°23'24 8.8
2014-Oct-28 04:32N 37°25' W 000°43'239 9.2
2014-Oct-27 02:34N 35°54' W 005°19'0 0.3
2014-Oct-27 01:32N 35°54' W 005°18'0 0.0
2014-Oct-27 00:32N 35°54' W 005°18'2 2.3
2014-Oct-26 23:33N 35°56' W 005°20'268 8.5
2014-Oct-25 16:05N 38°24' W 010°01'6 9.5
2014-Oct-25 15:29N 38°29' W 010°02'9 9.6
2014-Oct-25 14:33N 38°38' W 010°05'9 9.4
2014-Oct-25 13:33N 38°47' W 010°06'  
2014-Oct-23 00:33N 47°48' W 006°42'8 8.3
2014-Oct-22 23:33N 47°55' W 006°37'75 9.4
2014-Oct-22 15:33N 48°59' W 005°37'105 8.7
2014-Oct-22 03:28N 50°11' W 003°39'8 8.3
2014-Oct-22 02:33N 50°13' W 003°27'10 9.5
2014-Oct-22 01:33N 50°16' W 003°13'1010.2
2014-Oct-22 00:33N 50°19' W 002°58'  

Dump ship's entire track history